sensor_id;sensor_type;location;lat;lon;timestamp;P1;durP1;ratioP1;P2;durP2;ratioP2
23716;SDS011;22094;52.130;5.598;2023-06-10T00:00:11;10.25;;;5.22;;
23716;SDS011;22094;52.130;5.598;2023-06-10T00:02:39;7.43;;;5.32;;
23716;SDS011;22094;52.130;5.598;2023-06-10T00:05:05;5.90;;;5.15;;
23716;SDS011;22094;52.130;5.598;2023-06-10T00:07:32;7.82;;;5.18;;
23716;SDS011;22094;52.130;5.598;2023-06-10T00:09:59;5.88;;;5.10;;
23716;SDS011;22094;52.130;5.598;2023-06-10T00:12:28;7.63;;;5.03;;
23716;SDS011;22094;52.130;5.598;2023-06-10T00:14:54;6.13;;;5.30;;
23716;SDS011;22094;52.130;5.598;2023-06-10T00:17:19;5.25;;;4.75;;
23716;SDS011;22094;52.130;5.598;2023-06-10T00:19:45;6.88;;;5.57;;
23716;SDS011;22094;52.130;5.598;2023-06-10T00:22:12;7.70;;;5.20;;
23716;SDS011;22094;52.130;5.598;2023-06-10T00:24:37;7.65;;;4.90;;
23716;SDS011;22094;52.130;5.598;2023-06-10T00:27:04;5.68;;;5.05;;
23716;SDS011;22094;52.130;5.598;2023-06-10T00:29:32;6.90;;;4.85;;
23716;SDS011;22094;52.130;5.598;2023-06-10T00:31:57;8.48;;;5.22;;
23716;SDS011;22094;52.130;5.598;2023-06-10T00:34:23;7.45;;;5.53;;
23716;SDS011;22094;52.130;5.598;2023-06-10T00:36:49;7.20;;;5.50;;
23716;SDS011;22094;52.130;5.598;2023-06-10T00:39:15;7.65;;;5.50;;
23716;SDS011;22094;52.130;5.598;2023-06-10T00:41:41;8.48;;;5.22;;
23716;SDS011;22094;52.130;5.598;2023-06-10T00:44:07;8.65;;;5.35;;
23716;SDS011;22094;52.130;5.598;2023-06-10T00:46:33;8.10;;;5.10;;
23716;SDS011;22094;52.130;5.598;2023-06-10T00:48:59;7.43;;;5.07;;
23716;SDS011;22094;52.130;5.598;2023-06-10T00:51:25;12.10;;;5.40;;
23716;SDS011;22094;52.130;5.598;2023-06-10T00:53:51;8.32;;;5.32;;
23716;SDS011;22094;52.130;5.598;2023-06-10T00:56:17;8.15;;;5.60;;
23716;SDS011;22094;52.130;5.598;2023-06-10T00:58:43;9.95;;;5.57;;
23716;SDS011;22094;52.130;5.598;2023-06-10T01:01:10;9.38;;;5.60;;
23716;SDS011;22094;52.130;5.598;2023-06-10T01:03:39;7.25;;;5.38;;
23716;SDS011;22094;52.130;5.598;2023-06-10T01:14:49;10.10;;;5.50;;
23716;SDS011;22094;52.130;5.598;2023-06-10T01:17:16;10.13;;;5.80;;
23716;SDS011;22094;52.130;5.598;2023-06-10T01:19:43;7.88;;;5.28;;
23716;SDS011;22094;52.130;5.598;2023-06-10T01:22:09;11.45;;;5.43;;
23716;SDS011;22094;52.130;5.598;2023-06-10T01:24:35;7.15;;;5.38;;
23716;SDS011;22094;52.130;5.598;2023-06-10T01:27:03;7.90;;;5.55;;
23716;SDS011;22094;52.130;5.598;2023-06-10T01:29:36;8.38;;;5.75;;
23716;SDS011;22094;52.130;5.598;2023-06-10T01:32:50;8.15;;;5.15;;
23716;SDS011;22094;52.130;5.598;2023-06-10T01:34:59;6.95;;;5.38;;
23716;SDS011;22094;52.130;5.598;2023-06-10T01:37:27;7.45;;;5.60;;
23716;SDS011;22094;52.130;5.598;2023-06-10T01:39:55;9.45;;;5.55;;
23716;SDS011;22094;52.130;5.598;2023-06-10T01:42:23;10.02;;;5.25;;
23716;SDS011;22094;52.130;5.598;2023-06-10T01:44:49;8.15;;;5.05;;
23716;SDS011;22094;52.130;5.598;2023-06-10T01:47:15;7.07;;;5.15;;
23716;SDS011;22094;52.130;5.598;2023-06-10T01:49:41;8.25;;;5.85;;
23716;SDS011;22094;52.130;5.598;2023-06-10T01:52:10;8.90;;;5.15;;
23716;SDS011;22094;52.130;5.598;2023-06-10T01:54:35;7.05;;;5.43;;
23716;SDS011;22094;52.130;5.598;2023-06-10T01:57:01;8.30;;;5.80;;
23716;SDS011;22094;52.130;5.598;2023-06-10T01:59:27;10.13;;;5.47;;
23716;SDS011;22094;52.130;5.598;2023-06-10T02:01:53;7.57;;;5.28;;
23716;SDS011;22094;52.130;5.598;2023-06-10T02:04:21;9.73;;;5.65;;
23716;SDS011;22094;52.130;5.598;2023-06-10T02:06:47;9.95;;;5.30;;
23716;SDS011;22094;52.130;5.598;2023-06-10T02:09:13;7.85;;;5.45;;
23716;SDS011;22094;52.130;5.598;2023-06-10T02:11:39;9.73;;;5.97;;
23716;SDS011;22094;52.130;5.598;2023-06-10T02:14:05;10.52;;;5.95;;
23716;SDS011;22094;52.130;5.598;2023-06-10T02:16:30;9.93;;;5.78;;
23716;SDS011;22094;52.130;5.598;2023-06-10T02:18:56;11.63;;;5.78;;
23716;SDS011;22094;52.130;5.598;2023-06-10T02:21:22;8.98;;;5.80;;
23716;SDS011;22094;52.130;5.598;2023-06-10T02:23:48;7.93;;;5.55;;
23716;SDS011;22094;52.130;5.598;2023-06-10T02:26:14;9.85;;;5.38;;
23716;SDS011;22094;52.130;5.598;2023-06-10T02:28:42;8.20;;;5.80;;
23716;SDS011;22094;52.130;5.598;2023-06-10T02:31:08;9.55;;;5.97;;
23716;SDS011;22094;52.130;5.598;2023-06-10T02:33:34;8.20;;;5.20;;
23716;SDS011;22094;52.130;5.598;2023-06-10T02:36:02;9.75;;;6.10;;
23716;SDS011;22094;52.130;5.598;2023-06-10T02:38:28;10.77;;;6.10;;
23716;SDS011;22094;52.130;5.598;2023-06-10T02:40:54;9.07;;;5.93;;
23716;SDS011;22094;52.130;5.598;2023-06-10T02:43:20;7.35;;;5.40;;
23716;SDS011;22094;52.130;5.598;2023-06-10T02:45:45;6.60;;;5.78;;
23716;SDS011;22094;52.130;5.598;2023-06-10T02:48:11;11.00;;;6.40;;
23716;SDS011;22094;52.130;5.598;2023-06-10T02:50:36;8.40;;;6.18;;
23716;SDS011;22094;52.130;5.598;2023-06-10T02:53:04;11.65;;;5.82;;
23716;SDS011;22094;52.130;5.598;2023-06-10T02:55:30;9.13;;;5.50;;
23716;SDS011;22094;52.130;5.598;2023-06-10T02:57:56;8.75;;;6.18;;
23716;SDS011;22094;52.130;5.598;2023-06-10T03:00:21;9.13;;;5.85;;
23716;SDS011;22094;52.130;5.598;2023-06-10T03:02:50;10.40;;;6.82;;
23716;SDS011;22094;52.130;5.598;2023-06-10T03:05:16;11.70;;;6.10;;
23716;SDS011;22094;52.130;5.598;2023-06-10T03:07:42;9.60;;;5.95;;
23716;SDS011;22094;52.130;5.598;2023-06-10T03:10:07;10.07;;;6.07;;
23716;SDS011;22094;52.130;5.598;2023-06-10T03:12:33;10.32;;;6.45;;
23716;SDS011;22094;52.130;5.598;2023-06-10T03:14:59;11.27;;;5.72;;
23716;SDS011;22094;52.130;5.598;2023-06-10T03:17:24;10.07;;;6.32;;
23716;SDS011;22094;52.130;5.598;2023-06-10T03:19:50;8.93;;;6.22;;
23716;SDS011;22094;52.130;5.598;2023-06-10T03:22:16;7.82;;;5.88;;
23716;SDS011;22094;52.130;5.598;2023-06-10T03:24:41;9.85;;;6.10;;
23716;SDS011;22094;52.130;5.598;2023-06-10T03:27:09;9.93;;;5.90;;
23716;SDS011;22094;52.130;5.598;2023-06-10T03:29:39;10.02;;;6.13;;
23716;SDS011;22094;52.130;5.598;2023-06-10T03:32:05;11.85;;;6.50;;
23716;SDS011;22094;52.130;5.598;2023-06-10T03:34:31;11.05;;;6.32;;
23716;SDS011;22094;52.130;5.598;2023-06-10T03:36:57;11.40;;;6.40;;
23716;SDS011;22094;52.130;5.598;2023-06-10T03:39:23;9.93;;;6.30;;
23716;SDS011;22094;52.130;5.598;2023-06-10T03:41:49;9.23;;;6.20;;
23716;SDS011;22094;52.130;5.598;2023-06-10T03:44:15;10.23;;;6.57;;
23716;SDS011;22094;52.130;5.598;2023-06-10T03:46:41;7.93;;;5.80;;
23716;SDS011;22094;52.130;5.598;2023-06-10T03:49:06;8.43;;;6.45;;
23716;SDS011;22094;52.130;5.598;2023-06-10T03:51:32;10.30;;;5.93;;
23716;SDS011;22094;52.130;5.598;2023-06-10T03:53:59;8.25;;;6.05;;
23716;SDS011;22094;52.130;5.598;2023-06-10T03:56:25;9.63;;;5.90;;
23716;SDS011;22094;52.130;5.598;2023-06-10T03:58:50;10.25;;;6.38;;
23716;SDS011;22094;52.130;5.598;2023-06-10T04:01:16;12.13;;;6.93;;
23716;SDS011;22094;52.130;5.598;2023-06-10T04:03:46;10.50;;;6.13;;
23716;SDS011;22094;52.130;5.598;2023-06-10T04:06:14;11.25;;;6.20;;
23716;SDS011;22094;52.130;5.598;2023-06-10T04:08:40;9.57;;;5.80;;
23716;SDS011;22094;52.130;5.598;2023-06-10T04:11:06;12.38;;;6.30;;
23716;SDS011;22094;52.130;5.598;2023-06-10T04:13:32;10.82;;;6.18;;
23716;SDS011;22094;52.130;5.598;2023-06-10T04:15:57;9.93;;;6.22;;
23716;SDS011;22094;52.130;5.598;2023-06-10T04:18:23;8.40;;;5.93;;
23716;SDS011;22094;52.130;5.598;2023-06-10T04:20:48;9.43;;;6.72;;
23716;SDS011;22094;52.130;5.598;2023-06-10T04:23:14;12.60;;;6.35;;
23716;SDS011;22094;52.130;5.598;2023-06-10T04:25:40;10.20;;;6.00;;
23716;SDS011;22094;52.130;5.598;2023-06-10T04:28:05;13.35;;;6.53;;
23716;SDS011;22094;52.130;5.598;2023-06-10T04:30:31;13.50;;;6.07;;
23716;SDS011;22094;52.130;5.598;2023-06-10T04:32:57;9.45;;;6.25;;
23716;SDS011;22094;52.130;5.598;2023-06-10T04:35:23;11.73;;;6.45;;
23716;SDS011;22094;52.130;5.598;2023-06-10T04:37:51;9.70;;;5.95;;
23716;SDS011;22094;52.130;5.598;2023-06-10T04:40:18;9.60;;;6.47;;
23716;SDS011;22094;52.130;5.598;2023-06-10T04:42:43;8.75;;;5.97;;
23716;SDS011;22094;52.130;5.598;2023-06-10T04:45:09;12.73;;;6.07;;
23716;SDS011;22094;52.130;5.598;2023-06-10T04:47:34;10.52;;;5.75;;
23716;SDS011;22094;52.130;5.598;2023-06-10T04:50:00;11.80;;;6.28;;
23716;SDS011;22094;52.130;5.598;2023-06-10T04:52:27;8.38;;;6.75;;
23716;SDS011;22094;52.130;5.598;2023-06-10T04:54:53;9.60;;;6.28;;
23716;SDS011;22094;52.130;5.598;2023-06-10T04:57:19;9.75;;;6.22;;
23716;SDS011;22094;52.130;5.598;2023-06-10T04:59:45;10.20;;;6.15;;
23716;SDS011;22094;52.130;5.598;2023-06-10T05:02:11;8.90;;;6.15;;
23716;SDS011;22094;52.130;5.598;2023-06-10T05:04:36;12.40;;;6.30;;
23716;SDS011;22094;52.130;5.598;2023-06-10T05:07:02;9.50;;;5.97;;
23716;SDS011;22094;52.130;5.598;2023-06-10T05:09:28;9.70;;;6.18;;
23716;SDS011;22094;52.130;5.598;2023-06-10T05:11:55;12.50;;;6.28;;
23716;SDS011;22094;52.130;5.598;2023-06-10T05:14:21;10.73;;;5.97;;
23716;SDS011;22094;52.130;5.598;2023-06-10T05:16:47;11.27;;;6.97;;
23716;SDS011;22094;52.130;5.598;2023-06-10T05:19:13;8.50;;;6.00;;
23716;SDS011;22094;52.130;5.598;2023-06-10T05:21:38;8.77;;;6.15;;
23716;SDS011;22094;52.130;5.598;2023-06-10T05:24:04;9.80;;;5.80;;
23716;SDS011;22094;52.130;5.598;2023-06-10T05:26:31;9.95;;;6.20;;
23716;SDS011;22094;52.130;5.598;2023-06-10T05:28:58;16.85;;;5.93;;
23716;SDS011;22094;52.130;5.598;2023-06-10T05:31:23;11.10;;;5.60;;
23716;SDS011;22094;52.130;5.598;2023-06-10T05:33:49;9.63;;;6.20;;
23716;SDS011;22094;52.130;5.598;2023-06-10T05:36:15;10.32;;;6.35;;
23716;SDS011;22094;52.130;5.598;2023-06-10T05:38:41;9.13;;;6.03;;
23716;SDS011;22094;52.130;5.598;2023-06-10T05:41:06;9.98;;;5.90;;
23716;SDS011;22094;52.130;5.598;2023-06-10T05:43:33;10.43;;;5.93;;
23716;SDS011;22094;52.130;5.598;2023-06-10T05:45:58;9.80;;;6.10;;
23716;SDS011;22094;52.130;5.598;2023-06-10T05:48:24;10.10;;;5.82;;
23716;SDS011;22094;52.130;5.598;2023-06-10T05:50:50;9.18;;;5.50;;
23716;SDS011;22094;52.130;5.598;2023-06-10T05:53:16;7.15;;;5.47;;
23716;SDS011;22094;52.130;5.598;2023-06-10T05:55:42;8.25;;;5.65;;
23716;SDS011;22094;52.130;5.598;2023-06-10T05:58:08;9.93;;;5.65;;
23716;SDS011;22094;52.130;5.598;2023-06-10T06:00:34;8.88;;;5.72;;
23716;SDS011;22094;52.130;5.598;2023-06-10T06:03:00;8.05;;;5.68;;
23716;SDS011;22094;52.130;5.598;2023-06-10T06:05:26;8.35;;;5.53;;
23716;SDS011;22094;52.130;5.598;2023-06-10T06:07:52;8.73;;;5.43;;
23716;SDS011;22094;52.130;5.598;2023-06-10T06:10:18;7.88;;;5.35;;
23716;SDS011;22094;52.130;5.598;2023-06-10T06:12:43;6.63;;;5.18;;
23716;SDS011;22094;52.130;5.598;2023-06-10T06:15:10;11.48;;;5.88;;
23716;SDS011;22094;52.130;5.598;2023-06-10T06:17:36;11.38;;;5.85;;
23716;SDS011;22094;52.130;5.598;2023-06-10T06:20:02;9.48;;;5.80;;
23716;SDS011;22094;52.130;5.598;2023-06-10T06:22:28;10.32;;;6.20;;
23716;SDS011;22094;52.130;5.598;2023-06-10T06:24:54;9.80;;;6.22;;
23716;SDS011;22094;52.130;5.598;2023-06-10T06:27:19;9.02;;;5.70;;
23716;SDS011;22094;52.130;5.598;2023-06-10T06:29:46;10.18;;;5.93;;
23716;SDS011;22094;52.130;5.598;2023-06-10T06:32:12;9.80;;;5.55;;
23716;SDS011;22094;52.130;5.598;2023-06-10T06:34:38;10.02;;;5.30;;
23716;SDS011;22094;52.130;5.598;2023-06-10T06:37:04;10.65;;;5.65;;
23716;SDS011;22094;52.130;5.598;2023-06-10T06:39:29;7.82;;;5.38;;
23716;SDS011;22094;52.130;5.598;2023-06-10T06:41:55;8.82;;;5.50;;
23716;SDS011;22094;52.130;5.598;2023-06-10T06:44:21;6.57;;;5.30;;
23716;SDS011;22094;52.130;5.598;2023-06-10T06:46:46;8.70;;;5.55;;
23716;SDS011;22094;52.130;5.598;2023-06-10T06:49:12;10.25;;;5.75;;
23716;SDS011;22094;52.130;5.598;2023-06-10T06:51:37;11.48;;;5.47;;
23716;SDS011;22094;52.130;5.598;2023-06-10T06:54:03;10.50;;;5.57;;
23716;SDS011;22094;52.130;5.598;2023-06-10T06:56:30;8.15;;;5.25;;
23716;SDS011;22094;52.130;5.598;2023-06-10T06:58:56;7.85;;;5.38;;
23716;SDS011;22094;52.130;5.598;2023-06-10T07:01:22;6.20;;;4.95;;
23716;SDS011;22094;52.130;5.598;2023-06-10T07:03:48;5.80;;;4.85;;
23716;SDS011;22094;52.130;5.598;2023-06-10T07:06:14;6.55;;;5.13;;
23716;SDS011;22094;52.130;5.598;2023-06-10T07:08:40;9.38;;;4.90;;
23716;SDS011;22094;52.130;5.598;2023-06-10T07:11:06;6.43;;;5.07;;
23716;SDS011;22094;52.130;5.598;2023-06-10T07:13:31;6.78;;;4.47;;
23716;SDS011;22094;52.130;5.598;2023-06-10T07:15:57;6.13;;;4.80;;
23716;SDS011;22094;52.130;5.598;2023-06-10T07:18:23;9.32;;;5.10;;
23716;SDS011;22094;52.130;5.598;2023-06-10T07:20:48;7.75;;;4.82;;
23716;SDS011;22094;52.130;5.598;2023-06-10T07:23:14;8.65;;;4.82;;
23716;SDS011;22094;52.130;5.598;2023-06-10T07:25:41;10.70;;;4.93;;
23716;SDS011;22094;52.130;5.598;2023-06-10T07:28:06;6.80;;;4.88;;
23716;SDS011;22094;52.130;5.598;2023-06-10T07:30:32;9.80;;;6.20;;
23716;SDS011;22094;52.130;5.598;2023-06-10T07:32:58;9.60;;;5.22;;
23716;SDS011;22094;52.130;5.598;2023-06-10T07:35:23;9.38;;;6.13;;
23716;SDS011;22094;52.130;5.598;2023-06-10T07:37:49;8.07;;;4.82;;
23716;SDS011;22094;52.130;5.598;2023-06-10T07:40:15;6.50;;;4.63;;
23716;SDS011;22094;52.130;5.598;2023-06-10T07:42:41;9.82;;;4.95;;
23716;SDS011;22094;52.130;5.598;2023-06-10T07:45:08;7.03;;;5.63;;
23716;SDS011;22094;52.130;5.598;2023-06-10T07:47:34;11.00;;;4.78;;
23716;SDS011;22094;52.130;5.598;2023-06-10T07:49:59;7.32;;;4.60;;
23716;SDS011;22094;52.130;5.598;2023-06-10T07:52:25;10.70;;;4.80;;
23716;SDS011;22094;52.130;5.598;2023-06-10T07:54:51;10.25;;;5.35;;
23716;SDS011;22094;52.130;5.598;2023-06-10T07:57:17;10.80;;;4.90;;
23716;SDS011;22094;52.130;5.598;2023-06-10T07:59:43;6.53;;;4.50;;
23716;SDS011;22094;52.130;5.598;2023-06-10T08:02:09;10.23;;;4.80;;
23716;SDS011;22094;52.130;5.598;2023-06-10T08:04:35;10.73;;;5.10;;
23716;SDS011;22094;52.130;5.598;2023-06-10T08:07:00;10.27;;;5.00;;
23716;SDS011;22094;52.130;5.598;2023-06-10T08:09:27;7.88;;;4.90;;
23716;SDS011;22094;52.130;5.598;2023-06-10T08:11:53;9.32;;;4.45;;
23716;SDS011;22094;52.130;5.598;2023-06-10T08:14:20;9.40;;;4.80;;
23716;SDS011;22094;52.130;5.598;2023-06-10T08:16:46;7.05;;;4.55;;
23716;SDS011;22094;52.130;5.598;2023-06-10T08:19:12;8.40;;;4.57;;
23716;SDS011;22094;52.130;5.598;2023-06-10T08:21:37;7.15;;;4.50;;
23716;SDS011;22094;52.130;5.598;2023-06-10T08:24:04;9.18;;;4.90;;
23716;SDS011;22094;52.130;5.598;2023-06-10T08:26:34;6.55;;;4.28;;
23716;SDS011;22094;52.130;5.598;2023-06-10T08:29:00;7.30;;;4.32;;
23716;SDS011;22094;52.130;5.598;2023-06-10T08:31:26;8.98;;;4.63;;
23716;SDS011;22094;52.130;5.598;2023-06-10T08:33:51;5.15;;;3.90;;
23716;SDS011;22094;52.130;5.598;2023-06-10T08:36:17;8.70;;;4.30;;
23716;SDS011;22094;52.130;5.598;2023-06-10T08:38:43;6.90;;;4.57;;
23716;SDS011;22094;52.130;5.598;2023-06-10T08:41:09;7.07;;;4.10;;
23716;SDS011;22094;52.130;5.598;2023-06-10T08:43:40;12.88;;;4.18;;
23716;SDS011;22094;52.130;5.598;2023-06-10T08:46:08;5.20;;;3.80;;
23716;SDS011;22094;52.130;5.598;2023-06-10T08:48:34;6.22;;;3.83;;
23716;SDS011;22094;52.130;5.598;2023-06-10T08:51:04;6.75;;;4.00;;
23716;SDS011;22094;52.130;5.598;2023-06-10T08:53:31;6.85;;;4.00;;
23716;SDS011;22094;52.130;5.598;2023-06-10T08:55:58;6.30;;;4.13;;
23716;SDS011;22094;52.130;5.598;2023-06-10T08:58:28;5.80;;;3.83;;
23716;SDS011;22094;52.130;5.598;2023-06-10T09:00:54;7.65;;;4.30;;
23716;SDS011;22094;52.130;5.598;2023-06-10T09:03:20;5.32;;;4.10;;
23716;SDS011;22094;52.130;5.598;2023-06-10T09:05:49;6.13;;;4.30;;
23716;SDS011;22094;52.130;5.598;2023-06-10T09:08:15;5.20;;;4.13;;
23716;SDS011;22094;52.130;5.598;2023-06-10T09:10:41;6.13;;;4.10;;
23716;SDS011;22094;52.130;5.598;2023-06-10T09:13:07;7.05;;;4.15;;
23716;SDS011;22094;52.130;5.598;2023-06-10T09:15:33;4.60;;;4.05;;
23716;SDS011;22094;52.130;5.598;2023-06-10T09:17:59;6.80;;;4.38;;
23716;SDS011;22094;52.130;5.598;2023-06-10T09:20:25;7.25;;;4.43;;
23716;SDS011;22094;52.130;5.598;2023-06-10T09:22:51;6.82;;;4.45;;
23716;SDS011;22094;52.130;5.598;2023-06-10T09:25:17;6.95;;;3.90;;
23716;SDS011;22094;52.130;5.598;2023-06-10T09:27:44;7.95;;;3.90;;
23716;SDS011;22094;52.130;5.598;2023-06-10T09:30:34;5.88;;;4.00;;
23716;SDS011;22094;52.130;5.598;2023-06-10T09:33:01;7.22;;;4.28;;
23716;SDS011;22094;52.130;5.598;2023-06-10T09:35:27;5.32;;;3.63;;
23716;SDS011;22094;52.130;5.598;2023-06-10T09:37:55;5.80;;;3.90;;
23716;SDS011;22094;52.130;5.598;2023-06-10T09:40:25;5.40;;;4.22;;
23716;SDS011;22094;52.130;5.598;2023-06-10T09:42:56;5.38;;;4.03;;
23716;SDS011;22094;52.130;5.598;2023-06-10T09:45:25;6.70;;;4.18;;
23716;SDS011;22094;52.130;5.598;2023-06-10T09:47:56;7.07;;;4.05;;
23716;SDS011;22094;52.130;5.598;2023-06-10T09:50:22;4.72;;;3.85;;
23716;SDS011;22094;52.130;5.598;2023-06-10T09:52:49;5.95;;;3.70;;
23716;SDS011;22094;52.130;5.598;2023-06-10T09:55:16;4.47;;;3.85;;
23716;SDS011;22094;52.130;5.598;2023-06-10T09:57:42;6.10;;;3.83;;
23716;SDS011;22094;52.130;5.598;2023-06-10T10:00:14;6.22;;;4.07;;
23716;SDS011;22094;52.130;5.598;2023-06-10T10:02:46;5.57;;;3.95;;
23716;SDS011;22094;52.130;5.598;2023-06-10T10:05:14;6.57;;;4.07;;
23716;SDS011;22094;52.130;5.598;2023-06-10T10:07:40;10.73;;;3.78;;
23716;SDS011;22094;52.130;5.598;2023-06-10T10:10:06;6.90;;;4.00;;
23716;SDS011;22094;52.130;5.598;2023-06-10T10:12:33;4.22;;;3.80;;
23716;SDS011;22094;52.130;5.598;2023-06-10T10:15:00;6.85;;;3.88;;
23716;SDS011;22094;52.130;5.598;2023-06-10T10:17:26;4.93;;;3.80;;
23716;SDS011;22094;52.130;5.598;2023-06-10T10:19:57;6.82;;;4.28;;
23716;SDS011;22094;52.130;5.598;2023-06-10T10:22:26;6.63;;;4.00;;
23716;SDS011;22094;52.130;5.598;2023-06-10T10:24:59;4.90;;;4.00;;
23716;SDS011;22094;52.130;5.598;2023-06-10T10:27:28;4.88;;;4.00;;
23716;SDS011;22094;52.130;5.598;2023-06-10T10:29:58;5.55;;;3.70;;
23716;SDS011;22094;52.130;5.598;2023-06-10T10:32:38;7.93;;;4.00;;
23716;SDS011;22094;52.130;5.598;2023-06-10T10:35:12;5.13;;;3.80;;
23716;SDS011;22094;52.130;5.598;2023-06-10T10:37:46;5.95;;;4.07;;
23716;SDS011;22094;52.130;5.598;2023-06-10T10:40:12;6.65;;;3.58;;
23716;SDS011;22094;52.130;5.598;2023-06-10T10:42:39;5.97;;;4.00;;
23716;SDS011;22094;52.130;5.598;2023-06-10T10:45:06;7.05;;;3.65;;
23716;SDS011;22094;52.130;5.598;2023-06-10T10:47:33;7.15;;;3.88;;
23716;SDS011;22094;52.130;5.598;2023-06-10T10:50:00;5.43;;;3.80;;
23716;SDS011;22094;52.130;5.598;2023-06-10T10:52:28;4.28;;;3.88;;
23716;SDS011;22094;52.130;5.598;2023-06-10T10:55:17;4.13;;;3.67;;
23716;SDS011;22094;52.130;5.598;2023-06-10T10:57:43;3.95;;;3.60;;
23716;SDS011;22094;52.130;5.598;2023-06-10T11:00:10;8.00;;;3.65;;
23716;SDS011;22094;52.130;5.598;2023-06-10T11:05:07;6.53;;;4.28;;
23716;SDS011;22094;52.130;5.598;2023-06-10T11:07:34;6.50;;;3.85;;
23716;SDS011;22094;52.130;5.598;2023-06-10T11:10:08;6.53;;;3.70;;
23716;SDS011;22094;52.130;5.598;2023-06-10T11:15:22;8.18;;;4.30;;
23716;SDS011;22094;52.130;5.598;2023-06-10T11:18:09;4.43;;;3.72;;
23716;SDS011;22094;52.130;5.598;2023-06-10T11:28:40;7.68;;;3.90;;
23716;SDS011;22094;52.130;5.598;2023-06-10T11:31:06;5.97;;;4.00;;
23716;SDS011;22094;52.130;5.598;2023-06-10T11:33:32;5.15;;;3.95;;
23716;SDS011;22094;52.130;5.598;2023-06-10T11:35:58;6.53;;;3.75;;
23716;SDS011;22094;52.130;5.598;2023-06-10T11:38:24;4.50;;;4.10;;
23716;SDS011;22094;52.130;5.598;2023-06-10T11:40:51;5.90;;;3.90;;
23716;SDS011;22094;52.130;5.598;2023-06-10T11:43:17;7.78;;;3.83;;
23716;SDS011;22094;52.130;5.598;2023-06-10T11:45:43;5.82;;;4.18;;
23716;SDS011;22094;52.130;5.598;2023-06-10T11:48:09;4.80;;;3.67;;
23716;SDS011;22094;52.130;5.598;2023-06-10T11:50:36;6.00;;;3.85;;
23716;SDS011;22094;52.130;5.598;2023-06-10T11:53:02;6.97;;;3.75;;
23716;SDS011;22094;52.130;5.598;2023-06-10T11:55:44;7.97;;;4.07;;
23716;SDS011;22094;52.130;5.598;2023-06-10T11:58:15;4.32;;;3.92;;
23716;SDS011;22094;52.130;5.598;2023-06-10T12:00:52;5.75;;;4.30;;
23716;SDS011;22094;52.130;5.598;2023-06-10T12:03:19;4.65;;;4.05;;
23716;SDS011;22094;52.130;5.598;2023-06-10T12:06:00;7.53;;;4.30;;
23716;SDS011;22094;52.130;5.598;2023-06-10T12:08:26;6.22;;;3.90;;
23716;SDS011;22094;52.130;5.598;2023-06-10T12:10:52;5.78;;;3.70;;
23716;SDS011;22094;52.130;5.598;2023-06-10T12:13:19;5.63;;;4.18;;
23716;SDS011;22094;52.130;5.598;2023-06-10T12:15:45;5.47;;;4.18;;
23716;SDS011;22094;52.130;5.598;2023-06-10T12:18:18;6.15;;;4.32;;
23716;SDS011;22094;52.130;5.598;2023-06-10T12:20:47;6.55;;;4.13;;
23716;SDS011;22094;52.130;5.598;2023-06-10T12:23:14;4.43;;;4.03;;
23716;SDS011;22094;52.130;5.598;2023-06-10T12:25:48;4.30;;;3.90;;
23716;SDS011;22094;52.130;5.598;2023-06-10T12:28:16;6.22;;;4.50;;
23716;SDS011;22094;52.130;5.598;2023-06-10T12:30:44;8.27;;;3.90;;
23716;SDS011;22094;52.130;5.598;2023-06-10T12:33:16;6.50;;;4.38;;
23716;SDS011;22094;52.130;5.598;2023-06-10T12:35:49;5.63;;;3.80;;
23716;SDS011;22094;52.130;5.598;2023-06-10T12:38:23;7.88;;;4.35;;
23716;SDS011;22094;52.130;5.598;2023-06-10T12:40:49;5.10;;;4.32;;
23716;SDS011;22094;52.130;5.598;2023-06-10T12:43:19;5.60;;;4.07;;
23716;SDS011;22094;52.130;5.598;2023-06-10T12:45:46;5.60;;;4.00;;
23716;SDS011;22094;52.130;5.598;2023-06-10T12:50:38;5.00;;;4.50;;
23716;SDS011;22094;52.130;5.598;2023-06-10T12:53:05;4.82;;;4.03;;
23716;SDS011;22094;52.130;5.598;2023-06-10T12:55:32;6.57;;;4.43;;
23716;SDS011;22094;52.130;5.598;2023-06-10T12:57:58;4.40;;;3.90;;
23716;SDS011;22094;52.130;5.598;2023-06-10T13:00:25;8.05;;;4.18;;
23716;SDS011;22094;52.130;5.598;2023-06-10T13:02:54;5.03;;;4.40;;
23716;SDS011;22094;52.130;5.598;2023-06-10T13:05:20;4.97;;;4.32;;
23716;SDS011;22094;52.130;5.598;2023-06-10T13:07:46;4.43;;;4.00;;
23716;SDS011;22094;52.130;5.598;2023-06-10T13:10:16;5.28;;;4.57;;
23716;SDS011;22094;52.130;5.598;2023-06-10T13:12:42;4.63;;;4.22;;
23716;SDS011;22094;52.130;5.598;2023-06-10T13:15:08;4.72;;;4.18;;
23716;SDS011;22094;52.130;5.598;2023-06-10T13:17:34;4.82;;;3.95;;
23716;SDS011;22094;52.130;5.598;2023-06-10T13:20:02;4.55;;;4.15;;
23716;SDS011;22094;52.130;5.598;2023-06-10T13:22:30;4.35;;;3.95;;
23716;SDS011;22094;52.130;5.598;2023-06-10T13:24:57;4.38;;;3.95;;
23716;SDS011;22094;52.130;5.598;2023-06-10T13:27:23;5.85;;;4.07;;
23716;SDS011;22094;52.130;5.598;2023-06-10T13:29:49;4.68;;;4.20;;
23716;SDS011;22094;52.130;5.598;2023-06-10T13:32:15;4.40;;;3.92;;
23716;SDS011;22094;52.130;5.598;2023-06-10T13:34:41;4.03;;;3.65;;
23716;SDS011;22094;52.130;5.598;2023-06-10T13:37:07;5.57;;;3.70;;
23716;SDS011;22094;52.130;5.598;2023-06-10T13:39:33;5.55;;;3.92;;
23716;SDS011;22094;52.130;5.598;2023-06-10T13:41:59;5.95;;;3.80;;
23716;SDS011;22094;52.130;5.598;2023-06-10T13:44:25;5.13;;;4.03;;
23716;SDS011;22094;52.130;5.598;2023-06-10T13:46:51;5.97;;;3.97;;
23716;SDS011;22094;52.130;5.598;2023-06-10T13:49:17;4.38;;;3.70;;
23716;SDS011;22094;52.130;5.598;2023-06-10T13:51:43;4.22;;;3.42;;
23716;SDS011;22094;52.130;5.598;2023-06-10T13:54:09;4.90;;;3.72;;
23716;SDS011;22094;52.130;5.598;2023-06-10T13:56:35;4.30;;;3.88;;
23716;SDS011;22094;52.130;5.598;2023-06-10T13:59:03;5.20;;;4.03;;
23716;SDS011;22094;52.130;5.598;2023-06-10T14:01:29;6.18;;;3.72;;
23716;SDS011;22094;52.130;5.598;2023-06-10T14:03:55;5.20;;;3.58;;
23716;SDS011;22094;52.130;5.598;2023-06-10T14:06:21;4.38;;;3.90;;
23716;SDS011;22094;52.130;5.598;2023-06-10T14:08:47;4.35;;;3.55;;
23716;SDS011;22094;52.130;5.598;2023-06-10T14:11:13;5.18;;;3.42;;
23716;SDS011;22094;52.130;5.598;2023-06-10T14:13:39;3.95;;;3.20;;
23716;SDS011;22094;52.130;5.598;2023-06-10T14:16:05;7.97;;;3.60;;
23716;SDS011;22094;52.130;5.598;2023-06-10T14:18:31;4.80;;;3.72;;
23716;SDS011;22094;52.130;5.598;2023-06-10T14:20:57;7.18;;;3.35;;
23716;SDS011;22094;52.130;5.598;2023-06-10T14:23:23;6.00;;;3.78;;
23716;SDS011;22094;52.130;5.598;2023-06-10T14:25:50;4.60;;;3.40;;
23716;SDS011;22094;52.130;5.598;2023-06-10T14:28:16;4.57;;;3.35;;
23716;SDS011;22094;52.130;5.598;2023-06-10T14:30:42;5.13;;;3.40;;
23716;SDS011;22094;52.130;5.598;2023-06-10T14:33:08;4.28;;;3.45;;
23716;SDS011;22094;52.130;5.598;2023-06-10T14:35:34;4.32;;;3.53;;
23716;SDS011;22094;52.130;5.598;2023-06-10T14:38:00;4.53;;;3.40;;
23716;SDS011;22094;52.130;5.598;2023-06-10T14:40:26;4.68;;;3.20;;
23716;SDS011;22094;52.130;5.598;2023-06-10T14:42:54;5.05;;;4.00;;
23716;SDS011;22094;52.130;5.598;2023-06-10T14:45:20;6.57;;;3.40;;
23716;SDS011;22094;52.130;5.598;2023-06-10T14:47:46;3.65;;;3.08;;
23716;SDS011;22094;52.130;5.598;2023-06-10T14:50:13;6.05;;;3.65;;
23716;SDS011;22094;52.130;5.598;2023-06-10T14:52:38;3.55;;;3.25;;
23716;SDS011;22094;52.130;5.598;2023-06-10T14:55:05;4.90;;;3.25;;
23716;SDS011;22094;52.130;5.598;2023-06-10T14:57:31;3.97;;;3.30;;
23716;SDS011;22094;52.130;5.598;2023-06-10T14:59:57;5.85;;;3.30;;
23716;SDS011;22094;52.130;5.598;2023-06-10T15:02:23;8.70;;;3.10;;
23716;SDS011;22094;52.130;5.598;2023-06-10T15:04:48;4.72;;;3.20;;
23716;SDS011;22094;52.130;5.598;2023-06-10T15:07:14;6.53;;;3.33;;